createdAt,value
2022-12-17T00:00:25.957Z,5.42
2022-12-17T00:01:37.957Z,5.40
2022-12-17T00:02:28.623Z,5.38
2022-12-17T00:03:19.067Z,5.37
2022-12-17T00:04:09.799Z,5.36
2022-12-17T00:05:00.034Z,5.33
2022-12-17T00:05:50.077Z,5.30
2022-12-17T00:06:40.631Z,5.30
2022-12-17T00:07:31.174Z,5.29
2022-12-17T00:08:21.256Z,5.30
2022-12-17T00:09:11.413Z,5.31
2022-12-17T00:10:01.775Z,5.31
2022-12-17T00:10:52.156Z,5.33
2022-12-17T00:11:42.443Z,5.35
2022-12-17T00:12:32.962Z,5.37
2022-12-17T00:13:23.003Z,5.37
2022-12-17T00:14:13.219Z,5.37
2022-12-17T00:15:03.467Z,5.38
2022-12-17T00:15:53.964Z,5.39
2022-12-17T00:16:46.736Z,5.38
2022-12-17T00:17:37.309Z,5.39
2022-12-17T00:18:27.875Z,5.38
2022-12-17T00:19:18.303Z,5.38
2022-12-17T00:20:08.436Z,5.37
2022-12-17T00:20:59.828Z,5.36
2022-12-17T00:21:50.330Z,5.36
2022-12-17T00:22:40.821Z,5.37
2022-12-17T00:23:31.114Z,5.36
2022-12-17T00:24:21.401Z,5.37
2022-12-17T00:25:11.693Z,5.37
2022-12-17T00:26:02.051Z,5.39
2022-12-17T00:26:52.295Z,5.41
2022-12-17T00:27:42.768Z,5.42
2022-12-17T00:28:32.994Z,5.44
2022-12-17T00:29:23.527Z,5.45
2022-12-17T00:30:13.862Z,5.45
2022-12-17T00:31:04.191Z,5.46
2022-12-17T00:31:54.421Z,5.46
2022-12-17T00:32:47.075Z,5.46
2022-12-17T00:33:37.669Z,5.46
2022-12-17T00:34:28.137Z,5.47
2022-12-17T00:35:18.339Z,5.45
2022-12-17T00:36:08.885Z,5.45
2022-12-17T00:36:59.280Z,5.45
2022-12-17T00:37:49.933Z,5.45
2022-12-17T00:38:40.062Z,5.44
2022-12-17T00:39:30.176Z,5.44
2022-12-17T00:40:20.805Z,5.44
2022-12-17T00:41:11.249Z,5.44
2022-12-17T00:42:01.779Z,5.43
2022-12-17T00:42:52.006Z,5.43
2022-12-17T00:43:42.281Z,5.44
2022-12-17T00:44:32.706Z,5.43
2022-12-17T00:45:23.128Z,5.42
2022-12-17T00:46:13.701Z,5.42
2022-12-17T00:47:03.952Z,5.43
2022-12-17T00:47:54.612Z,5.42
2022-12-17T00:48:47.223Z,5.43
2022-12-17T00:49:37.787Z,5.44
2022-12-17T00:50:28.327Z,5.43
2022-12-17T00:51:18.748Z,5.44
2022-12-17T00:52:08.851Z,5.44
2022-12-17T00:52:59.245Z,5.43
2022-12-17T00:53:49.680Z,5.43
2022-12-17T00:54:40.474Z,5.43
2022-12-17T00:55:30.602Z,5.43
2022-12-17T00:56:20.723Z,5.42
2022-12-17T00:57:11.177Z,5.42
2022-12-17T00:58:01.329Z,5.41
2022-12-17T00:58:51.911Z,5.40
2022-12-17T00:59:42.211Z,5.41
2022-12-17T01:00:32.508Z,5.41
2022-12-17T01:01:22.992Z,5.42
2022-12-17T01:02:13.771Z,5.42
2022-12-17T01:03:04.159Z,5.42
2022-12-17T01:03:54.713Z,5.42
2022-12-17T01:04:47.326Z,5.42
2022-12-17T01:05:37.939Z,5.42
2022-12-17T01:06:28.569Z,5.43
2022-12-17T01:07:18.989Z,5.43
2022-12-17T01:08:09.790Z,5.44
2022-12-17T01:09:00.493Z,5.43
2022-12-17T01:09:50.760Z,5.43
2022-12-17T01:10:41.152Z,5.43
2022-12-17T01:11:31.578Z,5.42
2022-12-17T01:12:21.518Z,5.43
2022-12-17T01:13:11.571Z,5.43
2022-12-17T01:14:01.832Z,5.43
2022-12-17T01:14:52.040Z,5.44
2022-12-17T01:15:42.605Z,5.45
2022-12-17T01:16:33.197Z,5.45
2022-12-17T01:17:23.573Z,5.46
2022-12-17T01:18:14.015Z,5.45
2022-12-17T01:19:04.423Z,5.45
2022-12-17T01:19:54.607Z,5.45
2022-12-17T01:20:46.881Z,5.45
2022-12-17T01:21:37.315Z,5.46
2022-12-17T01:22:27.806Z,5.46
2022-12-17T01:23:18.177Z,5.45
2022-12-17T01:24:08.675Z,5.45
2022-12-17T01:24:59.317Z,5.44
2022-12-17T01:25:49.784Z,5.44
2022-12-17T01:26:40.434Z,5.42
2022-12-17T01:27:31.019Z,5.42
2022-12-17T01:28:21.434Z,5.41
2022-12-17T01:29:11.746Z,5.41
2022-12-17T01:30:02.236Z,5.41
2022-12-17T01:30:52.339Z,5.40
2022-12-17T01:31:42.637Z,5.41
2022-12-17T01:32:32.717Z,5.41
2022-12-17T01:33:23.223Z,5.42
2022-12-17T01:34:13.493Z,5.42
2022-12-17T01:35:03.466Z,5.44
2022-12-17T01:35:53.973Z,5.44
2022-12-17T01:36:44.381Z,5.45
2022-12-17T01:37:34.514Z,5.46
2022-12-17T01:38:24.908Z,5.47
2022-12-17T01:39:15.454Z,5.48
2022-12-17T01:40:05.509Z,5.50
2022-12-17T01:40:55.980Z,5.50
2022-12-17T01:41:46.130Z,5.51
2022-12-17T01:42:36.543Z,5.51
2022-12-17T01:43:27.019Z,5.52
2022-12-17T01:44:17.009Z,5.53
2022-12-17T01:45:07.247Z,5.55
2022-12-17T01:45:57.660Z,5.56
2022-12-17T01:46:47.556Z,5.58
2022-12-17T01:47:37.947Z,5.59
2022-12-17T01:48:28.306Z,5.61
2022-12-17T01:49:18.649Z,5.62
2022-12-17T01:50:09.410Z,5.63
2022-12-17T01:50:59.498Z,5.64
2022-12-17T01:51:49.762Z,5.65
2022-12-17T01:52:40.076Z,5.64
2022-12-17T01:53:30.516Z,5.64
2022-12-17T01:54:21.050Z,5.64
2022-12-17T01:55:11.729Z,5.63
2022-12-17T01:56:02.503Z,5.63
2022-12-17T01:56:52.666Z,5.65
2022-12-17T01:57:42.762Z,5.66
2022-12-17T01:58:32.934Z,5.67
2022-12-17T01:59:22.959Z,5.69
2022-12-17T02:00:13.378Z,5.69
2022-12-17T02:01:03.721Z,5.68
2022-12-17T02:01:54.334Z,5.69
2022-12-17T02:02:45.053Z,5.71
2022-12-17T02:03:36.108Z,5.72
2022-12-17T02:04:26.734Z,5.74
2022-12-17T02:05:17.176Z,5.74
2022-12-17T02:06:07.533Z,5.75
2022-12-17T02:06:57.968Z,5.74
2022-12-17T02:07:47.976Z,5.73
2022-12-17T02:08:38.109Z,5.72
2022-12-17T02:09:28.446Z,5.72
2022-12-17T02:10:18.811Z,5.73
2022-12-17T02:11:09.144Z,5.74
2022-12-17T02:12:00.332Z,5.74
2022-12-17T02:12:50.397Z,5.74
2022-12-17T02:13:40.948Z,5.75
2022-12-17T02:14:31.159Z,5.75
2022-12-17T02:15:21.712Z,5.76
2022-12-17T02:16:11.933Z,5.75
2022-12-17T02:17:02.104Z,5.75
2022-12-17T02:17:52.289Z,5.73
2022-12-17T02:18:42.502Z,5.72
2022-12-17T02:19:32.943Z,5.70
2022-12-17T02:20:23.263Z,5.68
2022-12-17T02:21:13.539Z,5.65
2022-12-17T02:22:05.416Z,5.64
2022-12-17T02:22:55.817Z,5.63
2022-12-17T02:23:46.056Z,5.64
2022-12-17T02:24:36.616Z,5.63
2022-12-17T02:25:27.055Z,5.63
2022-12-17T02:26:17.511Z,5.63
2022-12-17T02:27:07.701Z,5.62
2022-12-17T02:27:58.051Z,5.62
2022-12-17T02:28:48.243Z,5.62
2022-12-17T02:29:38.518Z,5.62
2022-12-17T02:30:28.960Z,5.62
2022-12-17T02:31:19.273Z,5.60
2022-12-17T02:32:09.876Z,5.60
2022-12-17T02:33:00.223Z,5.60
2022-12-17T02:33:50.722Z,5.59
2022-12-17T02:34:40.864Z,5.59
2022-12-17T02:35:31.317Z,5.58
2022-12-17T02:36:21.738Z,5.58
2022-12-17T02:37:12.036Z,5.56
2022-12-17T02:38:02.273Z,5.56
2022-12-17T02:38:52.296Z,5.56
2022-12-17T02:39:42.598Z,5.55
2022-12-17T02:40:33.328Z,5.54
2022-12-17T02:41:23.935Z,5.54
2022-12-17T02:42:14.265Z,5.54
2022-12-17T02:43:21.525Z,5.54
2022-12-17T02:44:11.725Z,5.52
2022-12-17T02:45:02.153Z,5.51
2022-12-17T02:45:52.481Z,5.51
2022-12-17T02:46:42.624Z,5.50
2022-12-17T02:47:33.214Z,5.50
2022-12-17T02:48:23.676Z,5.50
2022-12-17T02:49:14.020Z,5.49
2022-12-17T02:50:04.548Z,5.51
2022-12-17T02:50:54.924Z,5.51
2022-12-17T02:51:45.554Z,5.51
2022-12-17T02:52:36.030Z,5.52
2022-12-17T02:53:26.583Z,5.52
2022-12-17T02:54:16.928Z,5.52
2022-12-17T02:55:07.135Z,5.53
2022-12-17T02:55:57.207Z,5.53
2022-12-17T02:56:47.312Z,5.55
2022-12-17T02:57:43.989Z,5.56
2022-12-17T02:58:34.728Z,5.59
2022-12-17T02:59:25.003Z,5.62
2022-12-17T03:00:15.183Z,5.63
2022-12-17T03:01:05.221Z,5.65
2022-12-17T03:01:55.934Z,5.65
2022-12-17T03:02:46.565Z,5.64
2022-12-17T03:03:37.209Z,5.65
2022-12-17T03:04:27.857Z,5.63
2022-12-17T03:05:43.509Z,5.62
2022-12-17T03:06:28.162Z,5.61
2022-12-17T03:07:18.478Z,5.60
2022-12-17T03:08:08.894Z,5.61
2022-12-17T03:08:59.302Z,5.60
2022-12-17T03:09:50.175Z,5.60
2022-12-17T03:10:40.514Z,5.60
2022-12-17T03:11:30.795Z,5.60
2022-12-17T03:12:21.329Z,5.60
2022-12-17T03:13:11.846Z,5.62
2022-12-17T03:14:02.445Z,5.61
2022-12-17T03:15:03.670Z,5.61
2022-12-17T03:15:53.582Z,5.60
2022-12-17T03:16:43.620Z,5.61
2022-12-17T03:17:33.947Z,5.60
2022-12-17T03:18:24.414Z,5.60
2022-12-17T03:19:14.901Z,5.61
2022-12-17T03:20:05.311Z,5.60
2022-12-17T03:20:55.665Z,5.61
2022-12-17T03:21:45.994Z,5.60
2022-12-17T03:22:36.213Z,5.61
2022-12-17T03:23:26.573Z,5.60
2022-12-17T03:24:16.937Z,5.59
2022-12-17T03:25:07.411Z,5.60
2022-12-17T03:25:57.980Z,5.59
2022-12-17T03:26:48.544Z,5.58
2022-12-17T03:27:39.030Z,5.57
2022-12-17T03:28:29.467Z,5.56
2022-12-17T03:29:19.765Z,5.54
2022-12-17T03:30:10.334Z,5.53
2022-12-17T03:31:00.744Z,5.52
2022-12-17T03:31:51.377Z,5.51
2022-12-17T03:32:41.632Z,5.51
2022-12-17T03:33:32.286Z,5.50
2022-12-17T03:34:22.578Z,5.49
2022-12-17T03:35:12.822Z,5.49
2022-12-17T03:36:02.915Z,5.47
2022-12-17T03:36:53.251Z,5.47
2022-12-17T03:37:43.545Z,5.46
2022-12-17T03:38:33.707Z,5.46
2022-12-17T03:39:31.745Z,5.46
2022-12-17T03:40:26.975Z,5.46
2022-12-17T03:41:16.846Z,5.46
2022-12-17T03:42:06.957Z,5.46
2022-12-17T03:42:57.081Z,5.46
2022-12-17T03:43:47.075Z,5.46
2022-12-17T03:44:37.236Z,5.47
2022-12-17T03:45:27.808Z,5.47
2022-12-17T03:46:18.332Z,5.47
2022-12-17T03:47:08.706Z,5.47
2022-12-17T03:47:59.208Z,5.47
2022-12-17T03:48:49.491Z,5.47
2022-12-17T03:49:39.656Z,5.48
2022-12-17T03:50:29.983Z,5.48
2022-12-17T03:51:20.459Z,5.47
2022-12-17T03:52:27.739Z,5.47
2022-12-17T03:53:18.002Z,5.46
2022-12-17T03:54:08.201Z,5.46
2022-12-17T03:54:58.272Z,5.45
2022-12-17T03:55:48.440Z,5.44
2022-12-17T03:56:38.779Z,5.43
2022-12-17T03:57:28.998Z,5.42
2022-12-17T03:58:19.279Z,5.42
2022-12-17T03:59:09.468Z,5.42
2022-12-17T03:59:59.792Z,5.41
2022-12-17T04:00:50.352Z,5.42
2022-12-17T04:01:40.814Z,5.43
2022-12-17T04:02:31.152Z,5.43
2022-12-17T04:03:21.630Z,5.43
2022-12-17T04:04:12.022Z,5.44
2022-12-17T04:05:02.342Z,5.44
2022-12-17T04:05:52.575Z,5.45
2022-12-17T04:06:42.985Z,5.45
2022-12-17T04:07:33.518Z,5.45
2022-12-17T04:08:24.191Z,5.46
2022-12-17T04:09:14.667Z,5.46
2022-12-17T04:10:05.110Z,5.47
2022-12-17T04:10:55.403Z,5.47
2022-12-17T04:11:47.440Z,5.48
2022-12-17T04:12:37.664Z,5.47
2022-12-17T04:13:28.061Z,5.47
2022-12-17T04:14:18.429Z,5.46
2022-12-17T04:15:08.562Z,5.45
2022-12-17T04:15:59.030Z,5.45
2022-12-17T04:16:49.516Z,5.42
2022-12-17T04:17:39.843Z,5.41
2022-12-17T04:18:30.333Z,5.39
2022-12-17T04:19:20.505Z,5.37
2022-12-17T04:20:10.570Z,5.36
2022-12-17T04:21:00.703Z,5.35
2022-12-17T04:21:51.094Z,5.35
2022-12-17T04:22:41.178Z,5.35
2022-12-17T04:23:31.686Z,5.33
2022-12-17T04:24:22.196Z,5.34
2022-12-17T04:25:12.494Z,5.34
2022-12-17T04:26:02.816Z,5.33
2022-12-17T04:26:53.321Z,5.33
2022-12-17T04:27:46.801Z,5.33
2022-12-17T04:28:37.122Z,5.31
2022-12-17T04:29:27.421Z,5.30
2022-12-17T04:30:18.068Z,5.29
2022-12-17T04:31:08.454Z,5.26
2022-12-17T04:31:58.977Z,5.24
2022-12-17T04:32:49.614Z,5.23
2022-12-17T04:33:39.987Z,5.21
2022-12-17T04:34:30.659Z,5.19
2022-12-17T04:35:37.612Z,5.18
2022-12-17T04:36:27.588Z,5.15
2022-12-17T04:37:17.898Z,5.15
2022-12-17T04:38:08.174Z,5.12
2022-12-17T04:38:58.204Z,5.10
2022-12-17T04:39:48.843Z,5.08
2022-12-17T04:40:39.260Z,5.07
2022-12-17T04:41:29.366Z,5.06
2022-12-17T04:42:19.655Z,5.05
2022-12-17T04:43:09.905Z,5.04
2022-12-17T04:44:03.199Z,5.01
2022-12-17T04:44:53.911Z,5.00
2022-12-17T04:45:44.177Z,4.99
2022-12-17T04:46:34.937Z,4.96
2022-12-17T04:47:25.237Z,4.95
2022-12-17T04:48:15.873Z,4.95
2022-12-17T04:49:05.970Z,4.92
2022-12-17T04:49:56.316Z,4.92
2022-12-17T04:50:46.480Z,4.92
2022-12-17T04:51:37.105Z,4.89
2022-12-17T04:52:27.477Z,4.89
2022-12-17T04:53:17.886Z,4.89
2022-12-17T04:54:08.173Z,4.88
2022-12-17T04:54:58.472Z,4.87
2022-12-17T04:55:48.701Z,4.87
2022-12-17T04:56:38.859Z,4.86
2022-12-17T04:57:28.867Z,4.86
2022-12-17T04:58:26.483Z,4.85
2022-12-17T04:59:16.580Z,4.85
2022-12-17T05:00:06.723Z,4.85
2022-12-17T05:00:57.166Z,4.85
2022-12-17T05:01:47.621Z,4.86
2022-12-17T05:02:42.490Z,4.87
2022-12-17T05:03:33.973Z,4.86
2022-12-17T05:04:24.758Z,4.86
2022-12-17T05:05:15.465Z,4.85
2022-12-17T05:06:05.960Z,4.86
2022-12-17T05:06:56.244Z,4.85
2022-12-17T05:07:46.298Z,4.85
2022-12-17T05:08:41.195Z,4.85
2022-12-17T05:09:32.174Z,4.85
2022-12-17T05:10:22.521Z,4.86
2022-12-17T05:11:12.786Z,4.86
2022-12-17T05:12:03.462Z,4.86
2022-12-17T05:12:54.069Z,4.86
2022-12-17T05:13:44.549Z,4.86
2022-12-17T05:14:35.144Z,4.86
2022-12-17T05:15:25.254Z,4.85
2022-12-17T05:16:15.541Z,4.85
2022-12-17T05:17:05.857Z,4.85
2022-12-17T05:17:56.408Z,4.85
2022-12-17T05:18:46.626Z,4.84
2022-12-17T05:19:36.967Z,4.84
2022-12-17T05:20:27.622Z,4.83
2022-12-17T05:21:18.005Z,4.83
2022-12-17T05:22:08.399Z,4.83
2022-12-17T05:22:58.970Z,4.83
2022-12-17T05:23:49.501Z,4.83
2022-12-17T05:24:40.218Z,4.84
2022-12-17T05:25:30.807Z,4.86
2022-12-17T05:26:21.336Z,4.86
2022-12-17T05:27:11.606Z,4.86
2022-12-17T05:28:02.153Z,4.86
2022-12-17T05:28:52.524Z,4.84
2022-12-17T05:29:43.053Z,4.84
2022-12-17T05:32:11.967Z,4.81
2022-12-17T05:33:04.368Z,4.78
2022-12-17T05:33:56.171Z,4.75
2022-12-17T05:34:48.049Z,4.72
2022-12-17T05:35:39.996Z,4.69
2022-12-17T05:36:31.747Z,4.64
2022-12-17T05:37:23.887Z,4.59
2022-12-17T05:38:16.280Z,4.56
2022-12-17T05:39:08.633Z,4.51
2022-12-17T05:40:01.333Z,4.46
2022-12-17T05:40:53.676Z,4.41
2022-12-17T05:41:46.020Z,4.36
2022-12-17T05:42:38.574Z,4.34
2022-12-17T05:43:30.872Z,4.33
2022-12-17T05:44:23.307Z,4.33
2022-12-17T05:45:15.898Z,4.29
2022-12-17T05:46:08.079Z,4.28
2022-12-17T05:47:00.755Z,4.24
2022-12-17T05:47:53.704Z,4.19
2022-12-17T05:48:46.470Z,4.13
2022-12-17T05:49:39.500Z,4.11
2022-12-17T05:50:31.780Z,4.09
2022-12-17T05:51:23.792Z,4.06
2022-12-17T05:52:16.632Z,4.03
2022-12-17T05:53:09.155Z,4.02
2022-12-17T05:54:02.760Z,4.02
2022-12-17T05:55:02.263Z,4.00
2022-12-17T05:55:56.876Z,3.98
2022-12-17T05:57:06.501Z,3.96
2022-12-17T05:57:58.425Z,3.92
2022-12-17T05:58:50.362Z,3.89
2022-12-17T05:59:42.078Z,3.87
2022-12-17T06:00:33.883Z,3.86
2022-12-17T06:01:26.288Z,3.84
2022-12-17T06:02:19.051Z,3.84
2022-12-17T06:03:11.533Z,3.84
2022-12-17T06:04:03.816Z,3.83
2022-12-17T06:05:00.372Z,3.82
2022-12-17T06:05:54.136Z,3.83
2022-12-17T06:06:45.962Z,3.81
2022-12-17T06:07:37.894Z,3.83
2022-12-17T06:08:29.990Z,3.78
2022-12-17T06:09:21.888Z,3.75
2022-12-17T06:10:14.039Z,3.75
2022-12-17T06:11:05.884Z,3.75
2022-12-17T06:12:02.387Z,3.73
2022-12-17T06:12:54.872Z,3.74
2022-12-17T06:13:46.853Z,3.75
2022-12-17T06:14:38.972Z,3.74
2022-12-17T06:15:31.067Z,3.70
2022-12-17T06:16:23.250Z,3.71
2022-12-17T06:17:15.669Z,3.72
2022-12-17T06:18:10.071Z,3.71
2022-12-17T06:19:05.800Z,3.72
2022-12-17T06:19:57.746Z,3.73
2022-12-17T06:20:49.635Z,3.75
2022-12-17T06:21:41.463Z,3.77
2022-12-17T06:22:33.223Z,3.78
2022-12-17T06:23:24.789Z,3.80
2022-12-17T06:24:16.873Z,3.84
2022-12-17T06:25:08.953Z,3.87
2022-12-17T06:26:00.904Z,3.89
2022-12-17T06:26:53.059Z,3.92
2022-12-17T06:27:45.199Z,3.93
2022-12-17T06:28:36.864Z,3.94
2022-12-17T06:29:28.926Z,3.95
2022-12-17T06:30:21.042Z,3.97
2022-12-17T06:31:12.691Z,3.97
2022-12-17T06:32:04.698Z,3.99
2022-12-17T06:32:56.945Z,4.00
2022-12-17T06:33:48.942Z,4.02
2022-12-17T06:34:40.889Z,4.03
2022-12-17T06:35:32.649Z,4.04
2022-12-17T06:36:24.792Z,4.06
2022-12-17T06:37:16.481Z,4.07
2022-12-17T06:38:08.417Z,4.08
2022-12-17T06:39:00.370Z,4.08
2022-12-17T06:39:52.461Z,4.09
2022-12-17T06:40:44.641Z,4.10
2022-12-17T06:41:36.541Z,4.11
2022-12-17T06:42:28.113Z,4.11
2022-12-17T06:43:19.850Z,4.11
2022-12-17T06:44:11.485Z,4.11
2022-12-17T06:45:03.306Z,4.12
2022-12-17T06:45:54.833Z,4.13
2022-12-17T06:46:46.472Z,4.13
2022-12-17T06:47:38.215Z,4.14
2022-12-17T06:48:30.433Z,4.15
2022-12-17T06:49:22.355Z,4.15
2022-12-17T06:50:14.265Z,4.16
2022-12-17T06:51:06.254Z,4.16
2022-12-17T06:51:58.100Z,4.16
2022-12-17T06:52:50.086Z,4.15
2022-12-17T06:53:41.943Z,4.15
2022-12-17T06:54:33.976Z,4.16
2022-12-17T06:55:25.591Z,4.16
2022-12-17T06:56:17.202Z,4.17
2022-12-17T06:57:09.368Z,4.18
2022-12-17T06:58:01.090Z,4.18
2022-12-17T06:58:52.969Z,4.18
2022-12-17T06:59:44.777Z,4.19
2022-12-17T07:00:36.387Z,4.20
2022-12-17T07:01:28.496Z,4.20
2022-12-17T07:02:20.280Z,4.21
2022-12-17T07:03:14.801Z,4.22
2022-12-17T07:04:07.068Z,4.20
2022-12-17T07:04:59.175Z,4.20
2022-12-17T07:05:51.208Z,4.20
2022-12-17T07:06:43.256Z,4.21
2022-12-17T07:07:35.107Z,4.20
2022-12-17T07:08:27.023Z,4.19
2022-12-17T07:09:19.168Z,4.17
2022-12-17T07:10:14.313Z,4.15
2022-12-17T07:11:06.342Z,4.13
2022-12-17T07:11:58.515Z,4.12
2022-12-17T07:12:50.200Z,4.07
2022-12-17T07:13:41.749Z,4.04
2022-12-17T07:14:33.804Z,4.02
2022-12-17T07:15:25.724Z,4.02
2022-12-17T07:16:17.480Z,3.98
2022-12-17T07:17:09.091Z,3.97
2022-12-17T07:18:00.885Z,3.96
2022-12-17T07:18:52.549Z,3.96
2022-12-17T07:19:44.367Z,3.94
2022-12-17T07:20:36.066Z,3.94
2022-12-17T07:21:27.820Z,3.93
2022-12-17T07:22:19.598Z,3.93
2022-12-17T07:23:11.662Z,3.91
2022-12-17T07:24:03.134Z,3.89
2022-12-17T07:24:54.910Z,3.89
2022-12-17T07:25:46.764Z,3.88
2022-12-17T07:26:38.466Z,3.89
2022-12-17T07:27:30.386Z,3.88
2022-12-17T07:28:22.189Z,3.88
2022-12-17T07:29:13.679Z,3.88
2022-12-17T07:30:07.192Z,3.88
2022-12-17T07:30:58.589Z,3.89
2022-12-17T07:31:50.334Z,3.89
2022-12-17T07:32:41.813Z,3.89
2022-12-17T07:33:34.271Z,3.87
2022-12-17T07:34:26.254Z,3.89
2022-12-17T07:35:18.465Z,3.88
2022-12-17T07:36:10.365Z,3.88
2022-12-17T07:37:01.746Z,3.87
2022-12-17T07:37:53.567Z,3.86
2022-12-17T07:38:45.594Z,3.85
2022-12-17T07:39:37.699Z,3.84
2022-12-17T07:40:30.042Z,3.84
2022-12-17T07:41:22.212Z,3.86
2022-12-17T07:42:13.919Z,3.87
2022-12-17T07:43:05.386Z,3.89
2022-12-17T07:43:57.308Z,3.90
2022-12-17T07:44:48.882Z,3.92
2022-12-17T07:45:40.629Z,3.93
2022-12-17T07:46:32.338Z,3.95
2022-12-17T07:47:24.198Z,3.96
2022-12-17T07:48:17.452Z,3.96
2022-12-17T07:49:09.277Z,3.96
2022-12-17T07:50:02.113Z,3.98
2022-12-17T07:50:53.664Z,3.99
2022-12-17T07:51:45.802Z,4.00
2022-12-17T07:52:37.485Z,4.03
2022-12-17T07:53:29.338Z,4.04
2022-12-17T07:54:20.974Z,4.05
2022-12-17T07:55:17.970Z,4.06
2022-12-17T07:56:09.960Z,4.08
2022-12-17T07:57:01.499Z,4.10
2022-12-17T07:57:53.384Z,4.12
2022-12-17T07:58:45.253Z,4.13
2022-12-17T07:59:36.854Z,4.14
2022-12-17T08:00:28.380Z,4.16
2022-12-17T08:01:20.334Z,4.16
2022-12-17T08:02:12.276Z,4.18
2022-12-17T08:03:04.601Z,4.19
2022-12-17T08:03:56.443Z,4.20
2022-12-17T08:04:48.127Z,4.20
2022-12-17T08:05:39.990Z,4.19
2022-12-17T08:06:31.738Z,4.19
2022-12-17T08:07:23.386Z,4.19
2022-12-17T08:08:15.271Z,4.20
2022-12-17T08:09:07.177Z,4.19
2022-12-17T08:09:59.708Z,4.20
2022-12-17T08:10:51.925Z,4.20
2022-12-17T08:11:44.090Z,4.20
2022-12-17T08:12:35.793Z,4.20
2022-12-17T08:13:27.629Z,4.21
2022-12-17T08:14:19.213Z,4.20
2022-12-17T08:15:11.104Z,4.20
2022-12-17T08:16:03.127Z,4.21
2022-12-17T08:16:54.649Z,4.21
2022-12-17T08:17:46.715Z,4.22
2022-12-17T08:18:38.719Z,4.22
2022-12-17T08:19:30.222Z,4.22
2022-12-17T08:20:22.084Z,4.22
2022-12-17T08:21:13.897Z,4.23
2022-12-17T08:22:05.980Z,4.22
2022-12-17T08:22:57.818Z,4.22
2022-12-17T08:23:49.815Z,4.22
2022-12-17T08:24:41.628Z,4.22
2022-12-17T08:25:33.439Z,4.23
2022-12-17T08:26:25.209Z,4.23
2022-12-17T08:27:16.980Z,4.24
2022-12-17T08:28:15.654Z,4.23
2022-12-17T08:29:18.502Z,4.24
2022-12-17T08:30:10.253Z,4.26
2022-12-17T08:31:01.874Z,4.27
2022-12-17T08:31:53.460Z,4.28
2022-12-17T08:32:45.261Z,4.30
2022-12-17T08:33:36.855Z,4.31
2022-12-17T08:34:28.627Z,4.31
2022-12-17T08:35:20.351Z,4.33
2022-12-17T08:36:11.893Z,4.33
2022-12-17T08:37:03.816Z,4.36
2022-12-17T08:37:55.933Z,4.37
2022-12-17T08:38:47.447Z,4.37
2022-12-17T08:39:39.261Z,4.40
2022-12-17T08:40:30.804Z,4.42
2022-12-17T08:41:26.185Z,4.44
2022-12-17T08:42:17.829Z,4.47
2022-12-17T08:43:09.516Z,4.50
2022-12-17T08:44:01.128Z,4.53
2022-12-17T08:44:53.159Z,4.55
2022-12-17T08:45:45.093Z,4.57
2022-12-17T08:46:36.665Z,4.59
2022-12-17T08:47:28.335Z,4.60
2022-12-17T08:48:20.035Z,4.63
2022-12-17T08:49:11.526Z,4.63
2022-12-17T08:50:03.162Z,4.65
2022-12-17T08:50:54.898Z,4.66
2022-12-17T08:51:46.675Z,4.66
2022-12-17T08:52:38.233Z,4.67
2022-12-17T08:53:34.749Z,4.68
2022-12-17T08:54:26.609Z,4.69
2022-12-17T08:55:18.741Z,4.71
2022-12-17T08:56:10.699Z,4.73
2022-12-17T08:57:02.324Z,4.74
2022-12-17T08:57:54.379Z,4.75
2022-12-17T08:58:46.398Z,4.76
2022-12-17T08:59:38.208Z,4.76
2022-12-17T09:00:30.278Z,4.77
2022-12-17T09:01:22.098Z,4.78
2022-12-17T09:02:13.924Z,4.78
2022-12-17T09:03:06.003Z,4.79
2022-12-17T09:03:57.900Z,4.80
2022-12-17T09:04:49.633Z,4.81
2022-12-17T09:05:41.355Z,4.83
2022-12-17T09:06:38.730Z,4.84
2022-12-17T09:07:31.287Z,4.86
2022-12-17T09:08:23.099Z,4.88
2022-12-17T09:09:14.811Z,4.90
2022-12-17T09:10:06.912Z,4.92
2022-12-17T09:10:59.045Z,4.94
2022-12-17T09:11:50.911Z,4.96
2022-12-17T09:12:42.933Z,4.98
2022-12-17T09:13:35.275Z,5.00
2022-12-17T09:14:27.487Z,5.02
2022-12-17T09:15:19.399Z,5.04
2022-12-17T09:16:11.353Z,5.05
2022-12-17T09:17:03.142Z,5.07
2022-12-17T09:17:55.407Z,5.09
2022-12-17T09:18:47.437Z,5.10
2022-12-17T09:19:39.486Z,5.11
2022-12-17T09:20:31.744Z,5.12
2022-12-17T09:21:23.940Z,5.13
2022-12-17T09:22:15.985Z,5.14
2022-12-17T09:23:07.999Z,5.15
2022-12-17T09:23:59.942Z,5.16
2022-12-17T09:24:51.994Z,5.17
2022-12-17T09:25:44.157Z,5.18
2022-12-17T09:26:35.752Z,5.19
2022-12-17T09:27:27.567Z,5.20
2022-12-17T09:28:19.576Z,5.21
2022-12-17T09:29:11.944Z,5.21
2022-12-17T09:30:03.552Z,5.23
2022-12-17T09:30:55.090Z,5.23
2022-12-17T09:31:46.944Z,5.23
2022-12-17T09:32:38.778Z,5.23
2022-12-17T09:33:30.535Z,5.23
2022-12-17T09:34:22.601Z,5.22
2022-12-17T09:35:14.253Z,5.21
2022-12-17T09:36:06.194Z,5.19
2022-12-17T09:36:58.475Z,5.19
2022-12-17T09:37:50.131Z,5.17
2022-12-17T09:38:42.163Z,5.15
2022-12-17T09:39:33.998Z,5.14
2022-12-17T09:40:26.541Z,5.12
2022-12-17T09:41:18.965Z,5.13
2022-12-17T09:42:11.067Z,5.12
2022-12-17T09:43:02.933Z,5.11
2022-12-17T09:43:54.860Z,5.11
2022-12-17T09:44:46.719Z,5.10
2022-12-17T09:45:38.944Z,5.11
2022-12-17T09:46:30.766Z,5.11
2022-12-17T09:47:22.848Z,5.12
2022-12-17T09:48:14.707Z,5.11
2022-12-17T09:49:06.645Z,5.10
2022-12-17T09:49:58.623Z,5.11
2022-12-17T09:50:50.817Z,5.11
2022-12-17T09:51:42.571Z,5.10
2022-12-17T09:52:34.345Z,5.10
2022-12-17T09:53:26.448Z,5.10
2022-12-17T09:54:18.450Z,5.10
2022-12-17T09:55:09.970Z,5.10
2022-12-17T09:56:01.437Z,5.09
2022-12-17T09:56:53.374Z,5.09
2022-12-17T09:57:45.920Z,5.09
2022-12-17T09:58:37.399Z,5.09
2022-12-17T09:59:29.393Z,5.09
2022-12-17T10:00:20.851Z,5.10
2022-12-17T10:01:12.888Z,5.10
2022-12-17T10:02:05.171Z,5.11
2022-12-17T10:02:57.399Z,5.11
2022-12-17T10:03:57.129Z,5.02
2022-12-17T10:04:49.004Z,4.81
2022-12-17T10:05:41.003Z,4.60
2022-12-17T10:06:33.077Z,4.37
2022-12-17T10:07:24.896Z,4.16
2022-12-17T10:08:16.616Z,3.96
2022-12-17T10:09:08.375Z,3.79
2022-12-17T10:09:59.994Z,3.63
2022-12-17T10:10:51.710Z,3.48
2022-12-17T10:11:43.709Z,3.33
2022-12-17T10:12:35.616Z,3.21
2022-12-17T10:13:27.648Z,3.09
2022-12-17T10:14:19.418Z,2.98
2022-12-17T10:15:11.006Z,2.85
2022-12-17T10:16:02.674Z,2.75
2022-12-17T10:16:54.871Z,2.64
2022-12-17T10:17:46.487Z,2.55
2022-12-17T10:18:38.388Z,2.45
2022-12-17T10:19:30.290Z,2.37
2022-12-17T10:20:22.289Z,2.29
2022-12-17T10:21:14.046Z,2.22
2022-12-17T10:22:06.044Z,2.14
2022-12-17T10:22:57.714Z,2.08
2022-12-17T10:23:49.408Z,2.01
2022-12-17T10:24:41.091Z,1.96
2022-12-17T10:25:32.981Z,1.91
2022-12-17T10:26:25.345Z,1.85
2022-12-17T10:27:16.962Z,1.80
2022-12-17T10:28:08.852Z,1.76
2022-12-17T10:29:00.452Z,1.72
2022-12-17T10:29:52.196Z,1.69
2022-12-17T10:30:44.551Z,1.65
2022-12-17T10:31:36.354Z,1.61
2022-12-17T10:32:28.246Z,1.58
2022-12-17T10:33:20.183Z,1.55
2022-12-17T10:34:12.083Z,1.52
2022-12-17T10:35:05.695Z,1.49
2022-12-17T10:35:57.488Z,1.46
2022-12-17T10:36:49.093Z,1.44
2022-12-17T10:37:41.510Z,1.42
2022-12-17T10:38:33.219Z,1.40
2022-12-17T10:39:25.250Z,1.38
2022-12-17T10:40:17.038Z,1.37
2022-12-17T10:41:09.058Z,1.35
2022-12-17T10:42:01.014Z,1.34
2022-12-17T10:42:53.244Z,1.32
2022-12-17T10:43:44.980Z,1.30
2022-12-17T10:44:36.507Z,1.28
2022-12-17T10:45:28.611Z,1.26
2022-12-17T10:46:20.629Z,1.25
2022-12-17T10:47:12.327Z,1.24
2022-12-17T10:48:06.314Z,1.22
2022-12-17T10:48:58.165Z,1.21
2022-12-17T10:49:49.736Z,1.21
2022-12-17T10:50:41.761Z,1.20
2022-12-17T10:51:33.589Z,1.21
2022-12-17T10:52:25.235Z,1.20
2022-12-17T10:53:17.728Z,1.20
2022-12-17T10:54:10.032Z,1.20
2022-12-17T10:55:06.867Z,1.20
2022-12-17T10:55:58.604Z,1.21
2022-12-17T10:56:50.498Z,1.20
2022-12-17T10:57:42.472Z,1.20
2022-12-17T10:58:34.282Z,1.21
2022-12-17T10:59:26.008Z,1.21
2022-12-17T11:00:17.621Z,1.21
2022-12-17T11:01:09.565Z,1.21
2022-12-17T11:02:02.345Z,1.22
2022-12-17T11:02:54.519Z,1.23
2022-12-17T11:03:50.333Z,1.24
2022-12-17T11:06:43.119Z,1.30
2022-12-17T11:07:35.170Z,1.31
2022-12-17T11:08:27.267Z,1.32
2022-12-17T11:09:19.226Z,1.36
2022-12-17T11:10:11.275Z,1.55
2022-12-17T11:11:03.279Z,2.07
2022-12-17T11:11:55.115Z,2.83
2022-12-17T11:12:49.217Z,3.65
2022-12-17T11:13:41.384Z,4.38
2022-12-17T11:14:33.519Z,5.01
2022-12-17T11:15:25.398Z,5.55
2022-12-17T11:16:17.758Z,6.00
2022-12-17T11:17:09.858Z,6.40
2022-12-17T11:18:04.548Z,6.74
2022-12-17T11:18:58.823Z,7.06
2022-12-17T11:19:50.538Z,7.31
2022-12-17T11:20:42.541Z,7.54
2022-12-17T11:21:34.599Z,7.75
2022-12-17T11:22:26.567Z,7.95
2022-12-17T11:23:38.576Z,8.13
2022-12-17T11:24:30.399Z,8.36
2022-12-17T11:25:22.341Z,8.53
2022-12-17T11:26:14.070Z,8.69
2022-12-17T11:27:05.970Z,8.84
2022-12-17T11:27:57.863Z,8.97
2022-12-17T11:28:49.721Z,9.11
2022-12-17T11:29:41.417Z,9.23